Time;durP1;ratioP1;P1;durP2;ratioP2;P2;SDS_P1;SDS_P2;PMS_P1;PMS_P2;Temp;Humidity;BMP_temperature;BMP_pressure;BME280_temperature;BME280_humidity;BME280_pressure;Samples;Min_cycle;Max_cycle;Signal;HPM_P1;HPM_P2
2024/04/15 00:01:02;;;;;;;11.33;4.23;;;;;;;12.35;55.12;101127.72;5275854;27;20316;-76
2024/04/15 00:03:27;;;;;;;10.90;4.10;;;;;;;12.52;54.46;101120.03;5277411;27;20478;-76
2024/04/15 00:05:53;;;;;;;9.30;5.00;;;;;;;12.55;54.42;101115.66;5276878;27;20231;-75
2024/04/15 00:08:18;;;;;;;8.13;3.83;;;;;;;12.77;54.27;101119.34;5276471;27;20359;-74
2024/04/15 00:10:43;;;;;;;8.73;3.63;;;;;;;12.28;55.79;101121.56;5277585;27;21104;-75
2024/04/15 00:13:09;;;;;;;11.30;4.50;;;;;;;12.67;54.31;101112.28;5274547;27;20247;-76
2024/04/15 00:15:34;;;;;;;11.53;3.83;;;;;;;12.66;54.81;101113.13;5276825;27;20295;-76
2024/04/15 00:17:59;;;;;;;8.47;4.20;;;;;;;12.44;55.63;101107.75;5276415;27;20215;-75
2024/04/15 00:20:27;;;;;;;15.93;4.13;;;;;;;12.29;55.39;101099.78;5276515;27;20266;-75
2024/04/15 00:22:52;;;;;;;10.23;4.77;;;;;;;12.24;56.19;101089.28;5275902;27;20239;-75
2024/04/15 00:25:18;;;;;;;10.27;3.90;;;;;;;12.22;55.63;101093.63;5278100;27;20992;-75
2024/04/15 00:27:43;;;;;;;15.10;4.50;;;;;;;12.37;55.36;101089.41;5278120;27;20249;-75
2024/04/15 00:30:08;;;;;;;13.10;3.87;;;;;;;12.42;55.70;101083.34;5283671;27;20717;-74
2024/04/15 00:32:34;;;;;;;9.93;3.70;;;;;;;12.44;55.30;101073.75;5281706;27;20524;-76
2024/04/15 00:34:59;;;;;;;14.57;4.50;;;;;;;12.58;55.07;101078.19;5282064;27;20219;-76
2024/04/15 00:37:24;;;;;;;8.83;3.63;;;;;;;11.73;57.02;101080.06;5279802;27;20258;-75
2024/04/15 00:39:50;;;;;;;15.33;5.30;;;;;;;12.06;55.70;101070.84;5279827;27;20215;-75
2024/04/15 00:42:15;;;;;;;11.30;3.90;;;;;;;12.28;55.66;101079.72;5278345;27;20583;-74
2024/04/15 00:44:40;;;;;;;11.00;3.50;;;;;;;12.25;55.27;101064.03;5280018;27;20249;-76
2024/04/15 00:47:08;;;;;;;10.20;3.40;;;;;;;12.25;56.02;101062.28;5279566;27;20519;-75
2024/04/15 00:49:34;;;;;;;9.90;4.23;;;;;;;12.32;55.74;101051.88;5277143;27;20223;-75
2024/04/15 00:51:59;;;;;;;15.00;4.77;;;;;;;12.52;54.54;101058.13;5280919;27;20521;-74
2024/04/15 00:54:28;;;;;;;10.60;3.67;;;;;;;12.52;55.08;101047.66;5279577;27;20349;-75
2024/04/15 00:56:55;;;;;;;12.47;4.03;;;;;;;11.88;56.26;101047.97;5281502;27;20454;-75
2024/04/15 00:59:21;;;;;;;9.50;4.00;;;;;;;12.55;54.75;101038.97;5278735;27;21015;-76
2024/04/15 01:01:47;;;;;;;10.63;3.90;;;;;;;12.37;55.38;101040.59;5282972;27;20482;-75
2024/04/15 01:04:12;;;;;;;9.80;3.73;;;;;;;12.58;54.59;101031.13;5285102;27;20968;-75
2024/04/15 01:06:39;;;;;;;13.10;3.80;;;;;;;12.25;55.39;101022.19;5284949;27;20231;-76
2024/04/15 01:09:04;;;;;;;8.77;3.50;;;;;;;12.46;54.54;101014.50;5284943;27;20231;-75
2024/04/15 01:11:30;;;;;;;11.00;4.00;;;;;;;12.55;54.41;101020.66;5278209;27;20477;-75
2024/04/15 01:13:55;;;;;;;8.80;3.63;;;;;;;12.50;54.84;101017.13;5279831;27;20243;-74
2024/04/15 01:16:21;;;;;;;9.83;3.90;;;;;;;12.32;54.65;101008.31;5278688;27;20235;-76
2024/04/15 01:18:46;;;;;;;9.17;3.67;;;;;;;12.18;54.82;101010.81;5276556;27;20257;-75
2024/04/15 01:21:11;;;;;;;6.97;3.53;;;;;;;11.67;56.13;101015.59;5278588;27;20235;-76
2024/04/15 01:23:46;;;;;;;9.40;3.90;;;;;;;12.11;55.27;101006.44;5278910;27;20243;-75
2024/04/15 01:26:11;;;;;;;14.77;5.57;;;;;;;11.40;56.62;100998.78;5278754;27;20234;-75
2024/04/15 01:28:37;;;;;;;9.00;4.33;;;;;;;11.65;56.37;100992.91;5278088;27;20407;-77
2024/04/15 01:31:02;;;;;;;7.93;3.73;;;;;;;12.13;55.36;100979.41;5276482;27;20226;-74
2024/04/15 01:33:27;;;;;;;7.13;3.67;;;;;;;11.98;55.16;100976.69;5270493;27;20279;-76
2024/04/15 01:35:52;;;;;;;11.33;4.23;;;;;;;11.94;55.87;100970.56;5277793;27;20223;-76
2024/04/15 01:38:18;;;;;;;13.60;4.33;;;;;;;12.07;55.46;100963.72;5278258;27;20245;-76
2024/04/15 01:40:43;;;;;;;10.77;4.10;;;;;;;12.08;55.39;100952.41;5277974;27;20239;-75
2024/04/15 01:43:08;;;;;;;8.60;4.07;;;;;;;12.19;55.23;100954.19;5277615;27;20243;-76
2024/04/15 01:45:34;;;;;;;9.40;4.43;;;;;;;12.41;54.37;100949.97;5277388;27;20227;-74
2024/04/15 01:47:59;;;;;;;9.80;4.30;;;;;;;12.11;55.45;100947.19;5277624;27;20219;-76
2024/04/15 01:50:24;;;;;;;7.10;3.80;;;;;;;12.06;55.26;100942.78;5277795;27;20685;-75
2024/04/15 01:52:50;;;;;;;7.77;3.67;;;;;;;12.09;55.20;100940.19;5277749;27;20274;-75
2024/04/15 01:55:15;;;;;;;6.53;3.60;;;;;;;11.78;55.98;100946.06;5277723;27;20276;-76
2024/04/15 01:57:42;;;;;;;7.33;4.00;;;;;;;11.91;55.87;100936.56;5277512;27;20263;-75
2024/04/15 02:00:07;;;;;;;16.83;3.87;;;;;;;11.92;55.50;100937.41;5277639;27;20219;-75
2024/04/15 02:02:33;;;;;;;6.97;3.50;;;;;;;11.51;56.75;100945.81;5275610;27;20514;-75
2024/04/15 02:04:59;;;;;;;12.97;3.80;;;;;;;10.77;58.80;100958.91;5275616;27;20458;-76
2024/04/15 02:07:25;;;;;;;7.47;3.10;;;;;;;10.98;58.48;100960.91;5277664;27;20810;-76
2024/04/15 02:09:50;;;;;;;11.80;3.93;;;;;;;10.67;58.82;100968.38;5247545;27;20697;-75
2024/04/15 02:12:15;;;;;;;10.13;3.60;;;;;;;11.11;58.42;100967.16;5277508;27;20988;-76
2024/04/15 02:14:41;;;;;;;13.17;3.97;;;;;;;11.33;56.90;100967.41;5278025;27;20245;-75
2024/04/15 02:17:06;;;;;;;10.30;3.70;;;;;;;10.89;58.18;100960.81;5277618;27;20269;-75
2024/04/15 02:19:31;;;;;;;14.40;4.57;;;;;;;11.32;57.11;100958.66;5277216;27;20220;-75
2024/04/15 02:21:57;;;;;;;9.60;4.70;;;;;;;10.53;58.56;100962.13;5275783;27;20329;-76
2024/04/15 02:24:23;;;;;;;10.40;4.13;;;;;;;11.08;57.75;100952.34;5277550;27;20235;-75
2024/04/15 02:26:48;;;;;;;15.07;4.40;;;;;;;11.37;56.81;100951.78;5277356;27;20766;-74
2024/04/15 02:29:13;;;;;;;11.30;4.10;;;;;;;10.81;57.60;100954.63;5275576;27;20333;-75
2024/04/15 02:31:39;;;;;;;10.87;4.13;;;;;;;11.19;57.47;100948.97;5277271;27;20219;-75
2024/04/15 02:34:04;;;;;;;7.83;4.50;;;;;;;11.14;57.10;100950.69;5277146;27;20333;-76
2024/04/15 02:36:29;;;;;;;9.67;3.80;;;;;;;10.80;57.68;100948.56;5275808;27;20231;-74
2024/04/15 02:38:54;;;;;;;6.97;3.53;;;;;;;10.93;57.45;100937.41;5276981;27;20215;-74
2024/04/15 02:41:20;;;;;;;14.33;4.10;;;;;;;10.50;58.58;100939.50;5277349;27;20278;-75
2024/04/15 02:43:45;;;;;;;8.93;4.57;;;;;;;10.74;57.73;100932.81;5277047;27;20242;-75
2024/04/15 02:46:10;;;;;;;9.57;3.77;;;;;;;10.50;58.21;100928.16;5276298;27;20257;-75
2024/04/15 02:48:37;;;;;;;10.43;3.97;;;;;;;10.81;57.83;100919.00;5276904;27;20219;-76
2024/04/15 02:51:02;;;;;;;10.10;3.60;;;;;;;10.50;58.52;100917.75;5275578;27;20567;-76
2024/04/15 02:53:28;;;;;;;13.17;4.00;;;;;;;10.11;59.49;100920.69;5275220;27;20513;-75
2024/04/15 02:55:54;;;;;;;9.53;3.80;;;;;;;10.83;57.66;100906.00;5276852;27;20292;-76
2024/04/15 02:58:19;;;;;;;7.57;4.00;;;;;;;10.63;57.32;100896.19;5276752;27;20216;-77
2024/04/15 03:00:45;;;;;;;10.60;4.10;;;;;;;10.34;58.67;100901.88;5277066;27;20223;-74
2024/04/15 03:03:10;;;;;;;7.80;3.83;;;;;;;10.45;58.61;100900.31;5276814;27;20348;-75
2024/04/15 03:05:45;;;;;;;7.60;3.90;;;;;;;10.42;58.24;100897.69;5276499;27;20218;-76
2024/04/15 03:08:11;;;;;;;10.53;4.20;;;;;;;11.16;57.07;100888.94;5276497;27;20285;-75
2024/04/15 03:10:36;;;;;;;17.30;4.20;;;;;;;10.57;57.73;100891.78;5274624;27;20962;-76
2024/04/15 03:13:02;;;;;;;9.13;4.00;;;;;;;11.08;56.75;100881.91;5274810;27;20776;-75
2024/04/15 03:15:27;;;;;;;12.63;3.87;;;;;;;11.17;56.06;100875.03;5276616;27;20219;-75
2024/04/15 03:17:52;;;;;;;11.23;3.73;;;;;;;11.02;56.86;100876.63;5276593;27;20215;-76
2024/04/15 03:20:18;;;;;;;9.60;3.90;;;;;;;11.05;56.57;100868.81;5277252;27;20814;-76
2024/04/15 03:22:50;;;;;;;13.27;4.67;;;;;;;10.90;57.21;100866.94;5276811;27;20839;-76
2024/04/15 03:25:19;;;;;;;6.37;3.97;;;;;;;11.00;57.17;100869.63;5274791;27;20254;-76
2024/04/15 03:27:48;;;;;;;11.90;3.60;;;;;;;11.21;56.52;100867.22;5276361;27;20415;-76
2024/04/15 03:30:13;;;;;;;8.83;3.90;;;;;;;10.48;58.23;100855.16;5276755;27;20507;-74
2024/04/15 03:32:39;;;;;;;6.40;4.00;;;;;;;10.87;57.33;100853.84;5299134;21;20470;-77
2024/04/15 03:35:07;;;;;;;10.93;4.23;;;;;;;10.97;57.13;100847.00;5241415;27;20245;-77
2024/04/15 03:37:32;;;;;;;10.90;4.13;;;;;;;11.08;56.70;100855.81;5243103;27;20220;-76
2024/04/15 03:39:57;;;;;;;9.77;4.43;;;;;;;10.94;57.22;100853.06;5243097;27;20491;-76
2024/04/15 03:42:23;;;;;;;8.00;4.17;;;;;;;10.37;58.18;100852.44;5214539;27;20366;-76
2024/04/15 03:44:52;;;;;;;10.23;4.40;;;;;;;10.88;57.22;100846.91;5243993;27;20349;-76
2024/04/15 03:47:18;;;;;;;9.23;4.47;;;;;;;10.45;58.13;100842.97;5243342;27;20232;-76
2024/04/15 03:49:43;;;;;;;9.10;4.23;;;;;;;10.01;59.67;100847.59;5213434;27;20483;-77
2024/04/15 03:52:09;;;;;;;14.50;5.03;;;;;;;10.27;59.19;100837.53;5213604;27;21024;-76
2024/04/15 03:54:36;;;;;;;8.60;4.07;;;;;;;10.55;58.61;100840.47;5213913;27;20240;-76
2024/04/15 03:57:01;;;;;;;13.80;5.03;;;;;;;10.38;58.66;100830.72;5244433;27;20223;-76
2024/04/15 03:59:26;;;;;;;7.87;3.80;;;;;;;10.54;58.33;100825.69;5246501;27;20440;-76
2024/04/15 04:01:51;;;;;;;7.07;4.10;;;;;;;11.03;57.27;100818.38;5247546;27;20295;-75
2024/04/15 04:04:18;;;;;;;11.10;6.10;;;;;;;10.60;57.79;100823.16;5246458;27;20239;-75
2024/04/15 04:06:43;;;;;;;13.00;5.17;;;;;;;10.89;57.29;100819.97;5246205;27;20566;-74
2024/04/15 04:09:09;;;;;;;12.97;4.60;;;;;;;10.49;58.72;100811.75;5246615;27;20483;-76
2024/04/15 04:11:34;;;;;;;8.97;4.80;;;;;;;10.26;58.93;100810.56;5246927;27;20263;-75
2024/04/15 04:13:59;;;;;;;14.37;5.03;;;;;;;10.56;58.58;100803.13;5246369;27;20247;-76
2024/04/15 04:16:25;;;;;;;6.07;4.00;;;;;;;10.13;59.11;100795.66;5245947;27;20225;-76
2024/04/15 04:18:50;;;;;;;13.73;4.30;;;;;;;10.65;58.42;100800.63;5217177;27;20597;-76
2024/04/15 04:21:15;;;;;;;11.63;4.70;;;;;;;10.93;57.44;100791.34;5217608;27;20247;-77
2024/04/15 04:23:40;;;;;;;12.23;5.10;;;;;;;11.02;57.24;100785.31;5246293;27;20616;-76
2024/04/15 04:26:06;;;;;;;11.27;4.43;;;;;;;10.91;56.80;100789.56;5246025;27;20232;-76
2024/04/15 04:28:31;;;;;;;18.50;9.90;;;;;;;11.00;56.85;100774.00;5245545;27;20260;-77
2024/04/15 04:31:01;;;;;;;18.73;9.57;;;;;;;11.06;56.96;100784.47;5246060;27;20228;-76
2024/04/15 04:33:28;;;;;;;15.87;5.13;;;;;;;10.78;58.23;100778.13;5247116;27;20274;-76
2024/04/15 04:35:53;;;;;;;35.20;18.83;;;;;;;11.12;56.67;100758.44;5248267;27;20432;-76
2024/04/15 04:38:18;;;;;;;8.63;5.23;;;;;;;10.87;58.07;100751.28;5248958;27;20528;-76
2024/04/15 04:40:44;;;;;;;16.60;8.70;;;;;;;11.41;56.61;100749.06;5249361;27;20714;-75
2024/04/15 04:43:09;;;;;;;14.10;5.20;;;;;;;10.70;58.50;100759.84;5248628;27;20240;-76
2024/04/15 04:45:34;;;;;;;10.07;4.80;;;;;;;10.38;59.07;100756.91;5249307;27;20229;-76
2024/04/15 04:48:00;;;;;;;9.63;4.70;;;;;;;11.01;58.50;100754.84;5248425;27;20588;-77
2024/04/15 04:50:25;;;;;;;13.03;5.20;;;;;;;11.19;57.89;100751.53;5245572;27;20232;-76
2024/04/15 04:52:50;;;;;;;9.83;4.80;;;;;;;11.41;56.78;100744.72;5245432;27;20577;-75
2024/04/15 04:55:15;;;;;;;8.07;4.53;;;;;;;11.40;57.08;100731.66;5244768;27;20282;-76
2024/04/15 04:57:41;;;;;;;11.97;5.37;;;;;;;11.39;56.92;100725.56;5245127;27;20572;-77
2024/04/15 05:00:07;;;;;;;12.60;5.27;;;;;;;11.11;57.55;100717.56;5244901;27;20224;-77
2024/04/15 05:02:32;;;;;;;18.53;6.80;;;;;;;11.13;58.00;100709.72;5244879;27;20226;-76
2024/04/15 05:04:57;;;;;;;9.27;5.00;;;;;;;11.20;57.60;100708.91;5244837;27;20899;-75
2024/04/15 05:07:23;;;;;;;9.27;4.97;;;;;;;11.41;57.57;100722.97;5245117;27;20537;-76
2024/04/15 05:09:48;;;;;;;11.17;5.20;;;;;;;11.50;57.51;100727.34;5244579;27;20221;-76
2024/04/15 05:12:13;;;;;;;10.70;5.07;;;;;;;11.68;56.69;100718.75;5246142;27;20569;-75
2024/04/15 05:14:38;;;;;;;11.80;4.80;;;;;;;11.15;57.47;100722.78;5245962;27;20263;-75
2024/04/15 05:17:04;;;;;;;8.03;4.57;;;;;;;11.40;57.62;100716.84;5245798;27;20220;-76
2024/04/15 05:19:29;;;;;;;11.43;6.40;;;;;;;11.78;57.21;100718.81;5244850;27;20235;-76
2024/04/15 05:21:55;;;;;;;8.00;5.20;;;;;;;11.90;56.72;100717.09;5245699;27;20224;-75
2024/04/15 05:24:20;;;;;;;16.30;5.40;;;;;;;11.82;56.87;100713.59;5245410;27;20776;-75
2024/04/15 05:26:45;;;;;;;13.23;5.50;;;;;;;11.87;56.66;100717.97;5245618;27;20220;-75
2024/04/15 05:29:10;;;;;;;15.53;6.00;;;;;;;11.83;56.88;100712.72;5245535;27;20835;-75
2024/04/15 05:31:36;;;;;;;12.80;6.63;;;;;;;11.45;57.65;100712.53;5244999;27;20266;-74
2024/04/15 05:34:01;;;;;;;13.93;5.53;;;;;;;11.44;56.86;100705.56;5244847;27;20752;-74
2024/04/15 05:36:26;;;;;;;20.57;6.23;;;;;;;11.91;56.00;100692.75;5244886;27;20220;-75
2024/04/15 05:38:52;;;;;;;12.83;5.13;;;;;;;11.86;56.71;100702.28;5244826;27;20270;-75
2024/04/15 05:41:17;;;;;;;14.60;5.90;;;;;;;11.86;56.18;100697.94;5244986;27;20240;-75
2024/04/15 05:43:42;;;;;;;10.80;5.80;;;;;;;12.22;55.00;100703.31;5215407;27;20354;-76
2024/04/15 05:46:07;;;;;;;18.53;6.40;;;;;;;12.22;55.24;100698.09;5245444;27;20254;-76
2024/04/15 05:48:33;;;;;;;13.93;6.63;;;;;;;11.76;55.35;100706.63;5245245;27;20232;-76
2024/04/15 05:50:58;;;;;;;16.30;7.23;;;;;;;12.10;55.08;100696.31;5245730;27;20274;-75
2024/04/15 05:53:23;;;;;;;12.83;5.97;;;;;;;11.71;55.52;100697.88;5246680;27;20248;-76
2024/04/15 05:55:48;;;;;;;10.40;5.43;;;;;;;11.69;55.58;100692.66;5247378;27;20244;-76
2024/04/15 05:58:14;;;;;;;14.70;6.03;;;;;;;12.13;55.29;100685.84;5246765;27;20611;-76
2024/04/15 06:00:39;;;;;;;18.77;6.33;;;;;;;12.12;54.99;100684.09;5246347;27;20232;-74
2024/04/15 06:03:05;;;;;;;17.47;6.60;;;;;;;12.24;54.48;100678.91;5246097;27;20407;-76
2024/04/15 06:05:30;;;;;;;14.23;6.97;;;;;;;12.36;54.23;100674.56;5245780;27;20283;-76
2024/04/15 06:07:55;;;;;;;9.03;5.40;;;;;;;12.46;54.35;100661.50;5245141;27;20220;-76
2024/04/15 06:10:21;;;;;;;12.83;5.57;;;;;;;11.84;54.40;100659.59;5245197;27;20288;-77
2024/04/15 06:12:47;;;;;;;11.40;4.93;;;;;;;11.74;55.14;100649.13;5244755;27;20224;-76
2024/04/15 06:15:13;;;;;;;18.30;5.80;;;;;;;11.95;54.70;100645.75;5244596;27;20272;-76
2024/04/15 06:17:39;;;;;;;15.30;5.33;;;;;;;11.69;55.44;100645.66;5245305;27;20492;-80
2024/04/15 06:20:04;;;;;;;13.07;4.53;;;;;;;12.36;54.27;100638.84;5244443;27;20224;-76
2024/04/15 06:22:30;;;;;;;13.97;5.40;;;;;;;12.54;54.63;100632.75;5243195;27;20805;-76
2024/04/15 06:24:55;;;;;;;19.73;9.57;;;;;;;12.77;53.48;100618.78;5244519;27;20590;-76
2024/04/15 06:27:23;;;;;;;14.67;5.90;;;;;;;12.13;54.73;100618.78;5244367;27;20816;-76
2024/04/15 06:29:49;;;;;;;19.77;5.20;;;;;;;12.37;53.81;100614.44;5244034;27;20236;-76
2024/04/15 06:32:14;;;;;;;14.30;7.10;;;;;;;11.60;55.43;100609.06;5243869;27;20504;-76
2024/04/15 06:34:39;;;;;;;11.50;4.77;;;;;;;12.39;54.39;100607.47;5246085;27;20232;-75
2024/04/15 06:37:05;;;;;;;9.97;5.10;;;;;;;11.44;56.17;100597.69;5245669;27;20266;-76
2024/04/15 06:39:30;;;;;;;13.13;4.83;;;;;;;11.79;56.01;100600.38;5245332;27;20228;-75
2024/04/15 06:41:55;;;;;;;11.17;5.00;;;;;;;12.21;55.20;100592.66;5245390;27;20240;-76
2024/04/15 06:44:20;;;;;;;8.47;4.80;;;;;;;12.59;53.95;100590.91;5245303;27;20282;-75
2024/04/15 06:46:46;;;;;;;9.37;4.77;;;;;;;12.66;53.70;100578.69;5245942;27;20274;-77
2024/04/15 06:49:11;;;;;;;8.90;5.00;;;;;;;12.53;53.90;100583.94;5245249;27;20224;-76
2024/04/15 06:51:38;;;;;;;11.13;4.87;;;;;;;12.76;53.70;100568.22;5244306;27;20228;-75
2024/04/15 06:54:04;;;;;;;7.90;4.37;;;;;;;12.25;54.76;100567.41;5244791;27;20247;-76
2024/04/15 06:56:31;;;;;;;7.30;4.43;;;;;;;12.88;53.33;100566.41;5245419;27;20479;-75
2024/04/15 06:58:57;;;;;;;9.77;4.80;;;;;;;12.64;54.19;100560.38;5244300;27;20711;-74
2024/04/15 07:01:22;;;;;;;8.10;4.07;;;;;;;12.86;54.24;100557.72;5244948;27;20480;-75
2024/04/15 07:03:47;;;;;;;12.50;4.53;;;;;;;13.72;53.28;100541.66;5245110;27;20244;-75
2024/04/15 07:06:12;;;;;;;13.00;5.70;;;;;;;13.70;52.32;100535.53;5245409;27;20228;-75
2024/04/15 07:08:38;;;;;;;10.30;4.97;;;;;;;13.55;52.36;100541.75;5244391;27;20220;-75
2024/04/15 07:11:04;;;;;;;9.60;4.10;;;;;;;12.11;54.95;100552.59;5216373;27;20243;-75
2024/04/15 07:13:31;;;;;;;8.80;3.60;;;;;;;13.21;53.59;100541.88;5246142;27;20236;-75
2024/04/15 07:15:57;;;;;;;10.53;4.23;;;;;;;13.12;53.27;100537.59;5244691;27;20224;-75
2024/04/15 07:18:22;;;;;;;10.03;3.33;;;;;;;12.97;53.35;100528.03;5246110;27;21061;-76
2024/04/15 07:20:47;;;;;;;8.03;3.90;;;;;;;13.45;54.11;100519.97;5246172;27;20224;-74
2024/04/15 07:23:12;;;;;;;8.03;3.70;;;;;;;13.60;53.83;100518.16;5245036;27;20290;-75
2024/04/15 07:25:38;;;;;;;7.00;3.70;;;;;;;13.86;52.94;100511.88;5214452;27;20236;-77
2024/04/15 07:28:03;;;;;;;6.90;3.60;;;;;;;13.54;53.23;100505.09;5243139;27;20220;-75
2024/04/15 07:30:28;;;;;;;7.20;4.10;;;;;;;14.11;52.20;100488.94;5243610;27;20232;-75
2024/04/15 07:32:54;;;;;;;5.07;3.00;;;;;;;13.27;53.02;100489.53;5242760;27;20335;-74
2024/04/15 07:35:19;;;;;;;5.73;3.50;;;;;;;13.55;52.73;100491.97;5243360;27;20610;-76
2024/04/15 07:37:45;;;;;;;10.27;3.93;;;;;;;12.61;54.55;100497.59;5243228;27;20263;-74
2024/04/15 07:40:11;;;;;;;8.07;3.70;;;;;;;12.61;54.73;100495.88;5243608;27;20609;-75
2024/04/15 07:42:36;;;;;;;8.00;4.30;;;;;;;12.72;55.03;100490.63;5214242;27;20240;-75
2024/04/15 07:45:02;;;;;;;6.57;3.70;;;;;;;13.29;55.07;100479.88;5214380;27;20552;-76
2024/04/15 07:47:27;;;;;;;7.03;4.03;;;;;;;13.35;54.57;100485.97;5244366;27;20259;-76
2024/04/15 07:49:52;;;;;;;6.27;3.93;;;;;;;12.78;55.22;100476.66;5243659;27;20224;-75
2024/04/15 07:52:17;;;;;;;7.83;3.90;;;;;;;12.23;56.52;100475.94;5243846;27;20274;-75
2024/04/15 07:54:43;;;;;;;7.43;4.10;;;;;;;11.60;57.62;100476.75;5244720;27;20248;-77
2024/04/15 07:57:10;;;;;;;7.37;4.70;;;;;;;12.26;57.33;100467.22;5244840;27;20688;-77
2024/04/15 07:59:35;;;;;;;10.27;4.47;;;;;;;12.24;56.64;100467.19;5244300;27;20619;-74
2024/04/15 08:02:02;;;;;;;12.60;5.50;;;;;;;12.05;57.40;100465.47;5243424;27;20503;-75
2024/04/15 08:04:27;;;;;;;8.70;5.93;;;;;;;12.78;56.47;100460.94;5243176;27;20677;-76
2024/04/15 08:06:53;;;;;;;8.53;5.33;;;;;;;13.62;55.58;100437.81;5242728;27;20443;-75
2024/04/15 08:09:18;;;;;;;8.33;5.30;;;;;;;13.12;55.20;100445.09;5243035;27;20228;-77
2024/04/15 08:11:43;;;;;;;7.00;5.37;;;;;;;13.28;54.77;100430.16;5242501;27;20225;-75
2024/04/15 08:14:08;;;;;;;7.87;5.50;;;;;;;13.72;53.69;100428.13;5242615;27;20271;-76
2024/04/15 08:16:34;;;;;;;7.80;6.07;;;;;;;12.74;56.05;100430.44;5241982;27;20233;-75
2024/04/15 08:18:59;;;;;;;7.70;5.60;;;;;;;13.32;55.01;100421.41;5241763;27;20817;-75
2024/04/15 08:21:24;;;;;;;7.93;5.70;;;;;;;13.10;55.40;100418.94;5241945;27;20220;-76
2024/04/15 08:23:50;;;;;;;9.07;7.13;;;;;;;13.84;54.11;100414.91;5242802;27;20343;-75
2024/04/15 08:26:16;;;;;;;8.00;5.83;;;;;;;14.20;53.73;100393.59;5244808;27;20687;-76
2024/04/15 08:28:41;;;;;;;7.80;5.93;;;;;;;13.72;53.95;100397.56;5243371;27;20508;-75
2024/04/15 08:31:07;;;;;;;6.77;5.83;;;;;;;13.48;54.59;100393.41;5244320;27;20263;-75
2024/04/15 08:33:32;;;;;;;8.80;6.03;;;;;;;13.32;54.56;100390.84;5244892;27;20248;-75
2024/04/15 08:35:58;;;;;;;8.30;6.37;;;;;;;14.09;53.13;100371.00;5243843;27;20228;-75
2024/04/15 08:38:23;;;;;;;9.63;5.93;;;;;;;14.68;51.54;100357.22;5242873;27;20224;-76
2024/04/15 08:40:56;;;;;;;13.37;7.53;;;;;;;14.87;51.33;100367.44;5242160;27;20274;-76
2024/04/15 08:43:23;;;;;;;9.40;6.73;;;;;;;14.67;51.15;100367.69;5242512;27;20275;-74
2024/04/15 08:45:59;;;;;;;13.50;6.17;;;;;;;14.27;51.54;100361.19;5244764;27;20424;-77
2024/04/15 08:48:25;;;;;;;7.37;5.40;;;;;;;14.48;51.91;100358.28;5245618;27;20435;-76
2024/04/15 08:50:54;;;;;;;9.20;5.10;;;;;;;15.20;49.85;100344.22;5245734;27;20472;-75
2024/04/15 08:53:20;;;;;;;7.93;5.17;;;;;;;14.53;50.64;100345.13;5245343;27;20888;-75
2024/04/15 08:55:45;;;;;;;6.23;4.40;;;;;;;14.24;48.71;100341.09;5244945;27;20577;-73
2024/04/15 08:58:11;;;;;;;11.03;5.27;;;;;;;15.26;46.67;100338.84;5245494;27;20270;-76
2024/04/15 09:00:37;;;;;;;6.70;4.87;;;;;;;15.67;48.04;100339.91;5245045;27;20753;-75
2024/04/15 09:03:04;;;;;;;5.60;5.00;;;;;;;15.23;48.81;100331.03;5245006;27;20240;-75
2024/04/15 09:05:30;;;;;;;8.93;5.33;;;;;;;15.26;47.69;100336.22;5244919;27;20452;-75
2024/04/15 09:07:55;;;;;;;7.90;5.27;;;;;;;14.32;48.70;100341.03;5245138;27;20583;-75
2024/04/15 09:10:20;;;;;;;8.87;4.57;;;;;;;14.45;48.70;100334.75;5245465;27;20271;-75
2024/04/15 09:12:47;;;;;;;7.10;4.50;;;;;;;14.19;48.70;100331.56;5245082;27;20228;-76
2024/04/15 09:15:14;;;;;;;11.50;8.53;;;;;;;14.84;47.43;100325.50;5246308;27;20228;-76
2024/04/15 09:17:40;;;;;;;13.80;9.73;;;;;;;14.45;48.22;100324.25;5245084;27;21310;-75
2024/04/15 09:20:08;;;;;;;6.83;4.73;;;;;;;15.20;47.44;100313.56;5244776;27;21264;-75
2024/04/15 09:22:34;;;;;;;8.60;4.70;;;;;;;15.46;47.04;100318.34;5215176;27;20997;-75
2024/04/15 09:25:03;;;;;;;6.40;4.80;;;;;;;14.77;47.13;100320.31;5244705;27;20436;-75
2024/04/15 09:27:29;;;;;;;8.80;4.30;;;;;;;14.59;46.55;100317.94;5244533;27;20478;-74
2024/04/15 09:29:56;;;;;;;7.00;4.00;;;;;;;15.44;43.78;100308.81;5244370;27;20826;-75
2024/04/15 09:32:22;;;;;;;6.93;4.27;;;;;;;15.03;44.39;100307.72;5244809;27;20271;-75
2024/04/15 09:34:51;;;;;;;5.67;3.90;;;;;;;15.18;44.06;100304.84;5293112;22;20478;-72
2024/04/15 09:37:17;;;;;;;6.67;4.67;;;;;;;14.58;45.45;100308.34;5277770;27;20555;-74
2024/04/15 09:39:44;;;;;;;13.57;5.20;;;;;;;15.28;44.15;100295.06;5277650;27;20454;-73
2024/04/15 09:42:14;;;;;;;15.07;4.97;;;;;;;15.94;43.47;100293.88;5277984;27;20231;-73
2024/04/15 09:44:45;;;;;;;9.77;4.03;;;;;;;15.33;44.46;100274.84;5277350;27;20800;-72
2024/04/15 09:47:11;;;;;;;9.20;4.30;;;;;;;16.54;43.18;100265.44;5277793;27;20845;-73
2024/04/15 09:49:37;;;;;;;8.50;4.00;;;;;;;16.24;41.26;100257.31;5277365;27;20443;-73
2024/04/15 09:52:04;;;;;;;5.90;3.67;;;;;;;16.01;41.24;100239.41;5277886;27;21017;-72
2024/04/15 09:54:32;;;;;;;6.00;4.00;;;;;;;16.39;41.57;100221.06;5280061;27;20283;-74
2024/04/15 09:57:10;;;;;;;8.10;4.20;;;;;;;15.55;42.38;100216.66;5279277;27;20566;-74
2024/04/15 09:59:38;;;;;;;8.70;4.60;;;;;;;15.83;42.79;100207.34;5277915;27;20497;-73
2024/04/15 10:02:13;;;;;;;5.63;3.90;;;;;;;16.24;41.95;100198.59;5278991;27;20968;-75
2024/04/15 10:04:40;;;;;;;5.53;4.30;;;;;;;16.44;40.69;100188.50;5277990;27;20924;-74
2024/04/15 10:07:07;;;;;;;20.83;15.53;;;;;;;15.90;40.54;100180.91;5248730;27;20833;-74
2024/04/15 10:09:33;;;;;;;10.97;5.00;;;;;;;16.55;40.08;100175.06;5277869;27;20470;-73
2024/04/15 10:11:59;;;;;;;5.40;3.47;;;;;;;17.40;38.78;100158.88;5248253;27;20505;-73
2024/04/15 10:14:24;;;;;;;6.37;3.90;;;;;;;17.70;37.73;100153.63;5278428;27;20439;-73
2024/04/15 10:16:50;;;;;;;6.93;4.33;;;;;;;16.73;39.16;100142.16;5278231;27;20561;-74
2024/04/15 10:19:28;;;;;;;5.73;3.50;;;;;;;16.99;38.56;100144.16;5277973;27;20235;-73
2024/04/15 10:21:55;;;;;;;5.50;4.13;;;;;;;18.69;37.21;100125.91;5278161;27;20250;-73
2024/04/15 10:24:23;;;;;;;8.43;4.20;;;;;;;18.60;36.58;100126.22;5278237;27;20598;-74
2024/04/15 10:26:48;;;;;;;20.70;15.20;;;;;;;17.69;37.67;100123.78;5278213;27;20451;-74
2024/04/15 10:29:27;;;;;;;5.20;3.67;;;;;;;17.51;36.85;100120.78;5276764;27;20495;-74
2024/04/15 10:31:55;;;;;;;6.57;4.20;;;;;;;18.66;35.80;100104.88;5276949;27;20227;-73
2024/04/15 10:34:22;;;;;;;4.40;3.20;;;;;;;18.96;35.22;100099.50;5276433;27;20967;-74
2024/04/15 10:36:51;;;;;;;8.17;3.93;;;;;;;17.85;35.45;100108.34;5277766;27;20533;-74
2024/04/15 10:39:17;;;;;;;7.00;3.93;;;;;;;16.87;37.27;100112.00;5276653;27;20446;-74
2024/04/15 10:41:44;;;;;;;7.87;4.00;;;;;;;17.24;37.19;100105.72;5264294;27;20511;-73
2024/04/15 10:44:10;;;;;;;5.63;3.70;;;;;;;17.65;36.79;100101.06;5243306;27;20468;-73
2024/04/15 10:46:38;;;;;;;6.37;3.60;;;;;;;17.80;37.86;100099.72;5243612;27;20721;-73
2024/04/15 10:49:04;;;;;;;6.33;4.13;;;;;;;16.96;38.07;100095.97;5243263;27;20808;-73
2024/04/15 10:51:30;;;;;;;7.50;4.10;;;;;;;17.21;38.53;100082.13;5214294;27;20534;-73
2024/04/15 10:53:55;;;;;;;5.27;4.00;;;;;;;17.50;38.92;100076.88;5245590;27;20275;-73
2024/04/15 10:56:21;;;;;;;6.67;4.03;;;;;;;17.33;38.18;100068.59;5276699;27;20215;-73
2024/04/15 10:58:46;;;;;;;9.13;4.10;;;;;;;17.19;38.31;100063.72;5276890;27;20273;-73
2024/04/15 11:01:15;;;;;;;7.50;3.93;;;;;;;17.75;38.23;100059.44;5276772;27;20645;-73
2024/04/15 11:03:47;;;;;;;8.03;4.00;;;;;;;17.10;38.06;100058.72;5276362;27;20277;-73
2024/04/15 11:06:12;;;;;;;5.70;3.80;;;;;;;17.33;37.19;100042.25;5276316;27;20506;-73
2024/04/15 11:08:38;;;;;;;4.60;3.80;;;;;;;17.29;37.78;100030.97;5275842;27;20454;-73
2024/04/15 11:11:03;;;;;;;5.27;3.60;;;;;;;16.58;37.73;100035.53;5276877;27;20459;-75
2024/04/15 11:13:29;;;;;;;6.10;4.00;;;;;;;16.88;36.89;100026.84;5277013;27;20235;-74
2024/04/15 11:15:58;;;;;;;8.87;4.67;;;;;;;16.72;37.48;100023.75;5276720;27;20227;-75